Terminal Aerodrome Forecast
Issued by NWS Wilmington, OH

Home | Current Version | Previous Version | Text Only | Print | Product List | Glossary On
Versions: 1 2 3 4 5 6 7 8 9 10 11 12 13 14 15 16 17 18 19 20 21 22 23 24 25
000
FTUS41 KILN 012000 AAA
TAFCVG
TAF AMD
KCVG 012057Z 0121/0224 14006KT P6SM FEW300
     FM020100 15005KT P6SM BKN250
     FM021200 19014G24KT P6SM VCSH OVC040
     FM021800 19016G26KT 5SM -SHRA BR VCTS OVC020CB=

USA.gov is the U.S. government's official web portal to all federal, state and local government web resources and services.